MDT,Max TemperatureF,Mean TemperatureF,Min TemperatureF,Max Dew PointF,MeanDew PointF,Min DewpointF,Max Humidity, Mean Humidity, Min Humidity, Max Sea Level PressureIn, Mean Sea Level PressureIn, Min Sea Level PressureIn, Max VisibilityMiles, Mean VisibilityMiles, Min VisibilityMiles, Max Wind SpeedMPH, Mean Wind SpeedMPH, Max Gust SpeedMPH,PrecipitationIn, CloudCover, Events, WindDirDegrees
2013-3-1,46,39,31,34,30,27,100,83,65,30.62,30.54,30.47,10,7,3,12,2,13,T,7,,1
2013-3-2,49,38,27,34,30,26,100,78,56,30.57,30.38,30.06,10,6,2,12,5,16,0.00,2,,31
2013-3-3,46,37,28,38,29,16,92,71,49,30.01,29.94,29.85,10,10,9,36,18,44,0.01,6,Rain,227
2013-3-4,37,30,22,19,14,8,84,57,29,30.34,30.23,30.02,10,10,10,16,4,18,0.00,3,,223
2013-3-5,47,35,22,23,16,10,88,60,32,30.30,30.15,29.96,10,10,10,13,5,15,0.00,0,,46
2013-3-6,54,39,23,35,27,21,92,65,38,29.98,29.87,29.71,10,8,1,31,12,40,0.27,5,Rain-Snow,233
2013-3-7,43,36,28,28,24,22,78,62,45,30.08,30.01,29.96,10,10,10,14,6,17,0.00,3,,43
2013-3-8,43,36,28,34,30,27,92,75,57,29.95,29.89,29.83,10,8,1,12,4,15,0.04,7,Snow,21
2013-3-9,47,35,23,28,22,15,92,60,28,30.34,30.14,29.91,10,10,9,20,7,25,0.00,0,,263
2013-3-10,50,40,29,26,21,15,75,54,33,30.45,30.33,30.21,10,10,10,22,13,26,0.00,1,,223
2013-3-11,55,46,37,34,27,18,62,49,36,30.21,30.17,30.10,10,10,10,29,16,33,T,6,Rain,230
2013-3-12,54,43,32,33,31,27,82,64,46,30.31,30.24,30.18,10,10,10,18,11,23,0.00,2,,207
2013-3-13,64,47,29,35,31,28,92,60,28,30.34,30.26,30.23,10,10,9,18,6,23,0.00,0,,92
2013-3-14,68,48,28,37,32,27,92,60,28,30.30,30.20,30.09,10,10,8,17,5,22,0.00,0,,170
2013-3-15,63,53,43,33,28,25,60,44,27,30.07,30.02,29.97,10,10,10,26,15,31,0.00,1,,222
2013-3-16,57,46,35,36,27,19,64,44,24,30.01,29.92,29.78,10,10,10,29,14,36,0.01,2,Rain,228
2013-3-17,45,37,28,37,19,4,82,51,19,30.03,29.87,29.73,10,10,8,46,25,56,0.01,3,Rain,245
2013-3-18,47,36,24,17,15,11,62,47,31,30.12,30.07,30.00,10,10,10,37,20,44,0.00,2,,243
2013-3-19,52,37,21,19,13,7,71,45,18,30.29,30.20,30.09,10,10,10,14,5,16,0.00,0,,244
2013-3-20,50,43,36,41,31,4,92,55,18,30.05,29.87,29.67,10,9,2,31,12,39,0.33,7,Rain-Thunderstorm,199
2013-3-21,42,35,27,38,24,14,92,66,40,30.03,29.89,29.71,10,10,10,37,25,49,T,5,Rain,233
2013-3-22,34,28,21,25,21,16,88,76,63,30.12,29.99,29.90,10,7,0,23,13,29,0.04,6,Fog-Snow,250
2013-3-23,35,27,18,21,18,14,92,70,47,30.31,30.22,30.03,10,9,2,17,7,29,T,5,Snow,225
2013-3-24,37,27,16,17,13,6,84,57,29,30.33,30.29,30.27,10,10,10,13,4,20,0.00,3,,44
2013-3-25,48,31,14,22,15,9,80,53,26,30.30,30.20,30.06,10,10,10,12,4,15,0.00,1,,43
2013-3-26,48,38,28,33,28,24,92,71,49,30.02,29.99,29.96,10,10,10,14,4,16,T,5,Rain,8
2013-3-27,58,44,29,34,30,27,100,67,33,30.06,30.02,29.98,10,10,10,12,4,15,0.00,5,,44
2013-3-28,64,46,27,34,31,25,92,60,27,30.09,30.03,29.99,10,10,10,20,5,24,0.00,1,,331
2013-3-29,66,51,36,35,32,28,82,54,26,30.16,30.10,30.05,10,10,10,23,11,29,0.00,2,,231
2013-3-30,63,49,34,33,28,26,82,54,25,30.22,30.17,30.11,10,10,10,14,4,16,0.00,1,,217
2013-3-31,67,47,26,30,24,17,85,50,15,30.14,30.03,29.89,10,10,10,9,3,13,0.00,0,,357